Waves, NC (27982)

11:29 AM EDT on July 30, 2014 (GMT -0400)
KNCBUXTO2 Elev 42 ft | 35.26 °N, 75.53 °W | Change Station

Current weather conditions updated 9 minutes ago

Clear
Clear
79.1 °F
Feels Like 81 °F
N
8.0
Wind Variable Wind from East

Today is forecast to be nearly the same temperature as yesterday.

Today
High -- | Low -- °F
--% Chance of Precip.
Yesterday
High -- | Low -- °F
Precip. -- in
6:08 AM 8:07 PM
Waxing Crescent, 12% visible
Pressure 30.07 in
Visibility 10.0 miles
Clouds Clear
Heat Index 81 °F
Dew Point 67 °F
Humidity 67%
Rainfall 0.00 in
Snow Depth Not available.
UV 9 out of 12
Pollen 5.80 out of 12
Air Quality Not available.
Flu Activity Not available.
METAR KHSE 301451Z AUTO 08009G14KT 10SM CLR 27/16 A3007 RMK AO2 SLP181 T02720161 51014 TSNO

More Conditions Fewer Conditions

Pressure 30.07 in
Visibility 10.0 miles
Clouds Clear
Heat Index 81 °F
Dew Point 67 °F
Humidity 67%
Rainfall 0.00 in
Snow Depth Not available.
UV 9 out of 12
Pollen 5.80 out of 12
Air Quality Not available.
Flu Activity Not available.
METAR KHSE 301451Z AUTO 08009G14KT 10SM CLR 27/16 A3007 RMK AO2 SLP181 T02720161 51014 TSNO

More Conditions Fewer Conditions

10-Day Weather Forecast

Almanac

Astronomy

Jul. 30, 2014 Rise Set
Actual Time 6:08 AM EDT 8:07 PM EDT
Civil Twilight 5:40 AM EDT 8:35 PM EDT
Nautical Twilight 5:06 AM EDT 9:09 PM EDT
Astronomical Twilight 4:29 AM EDT 9:46 PM EDT
Moon 9:29 AM EDT 9:58 PM EDT
Length of Visible Light 14h 55m
Length of Day
13h 58m
Tomorrow will be 1m 38s shorter.
Waxing Crescent, 12% of the Moon is Illuminated
Today
Waxing Crescent
Aug 3
First Quarter
Aug 10
Full
Aug 17
Last Quarter
Aug 25
New

Today's Extremes

State Highs State Lows

Community

WunderPhotos

Upload Photos

1,739,107 photos uploaded!

WunderBlogs® & News

By Dr. Jeff Masters
Director of Meteorology, Weather Underground
By Kari Strenfel
Meteorologist, Weather Underground
By Christopher C. Burt
Weather Historian, Weather Underground
July 30, 2014
July 30, 2014
July 30, 2014

Nearby

Snow Depth

Station Depth Elevation
No new snow has been reported.

Earthquake Activity

City Distance Mag. Time & Date
No recent earthquake activity has been reported nearby.
Minimum magnitude displayed is 2.5.

Coastal Water Temperatures

Place Temperature
Oregon Inlet Marina, NC 77.0 °F
Hatteras, NC 79.0 °F
Duck Pier, NC 75.9 °F
Money Point, VA 81.0 °F
Beaufort, NC 81.0 °F
Sewells Point, VA 79.0 °F
Chesapeake Bay Bridge Tunnel, VA 77.0 °F

Nearby Weather Stations

Station Location Temp. Heat Index Dew Point Humidity Wind Precip. Elev Updated Type
Buxton, NC 79.1 °F 81 °F 67 °F 67% East  at  8.0 mph - / hr 42 ft 10:19 AM EST Normal
Frisco, NC, Hatteras, NC 78.5 °F 80 °F 65 °F 64% NE  at  0.0 mph 0.00 in / hr 55 ft 11:23 AM EDT Normal

Show More Stations Show Fewer Stations